Time;durP1;ratioP1;P1;durP2;ratioP2;P2;SDS_P1;SDS_P2;PMS_P1;PMS_P2;Temp;Humidity;BMP_temperature;BMP_pressure;BME280_temperature;BME280_humidity;BME280_pressure;Samples;Min_cycle;Max_cycle;Signal;HPM_P1;HPM_P2
2022/07/22 00:01:21;;;;;;;7.78;2.47;;;18.70;99.90;;;;;;5009860;28;20030;-86
2022/07/22 00:03:47;;;;;;;8.38;2.80;;;18.70;99.90;;;;;;5038453;28;20036;-86
2022/07/22 00:06:13;;;;;;;10.27;2.83;;;18.70;99.90;;;;;;5016563;28;20052;-86
2022/07/22 00:08:39;;;;;;;7.32;2.50;;;18.70;99.90;;;;;;5035009;28;20017;-86
2022/07/22 00:11:05;;;;;;;11.55;3.60;;;18.70;99.90;;;;;;5036344;28;20029;-86
2022/07/22 00:13:31;;;;;;;12.38;2.83;;;18.70;99.90;;;;;;5022476;28;20033;-86
2022/07/22 00:15:57;;;;;;;12.30;2.55;;;18.70;99.90;;;;;;5005640;28;20370;-86
2022/07/22 00:18:22;;;;;;;9.30;3.17;;;18.60;99.90;;;;;;5025185;28;20473;-86
2022/07/22 00:20:48;;;;;;;7.43;2.50;;;18.70;99.90;;;;;;5005968;28;20013;-85
2022/07/22 00:23:14;;;;;;;6.47;2.60;;;18.60;99.90;;;;;;5036187;28;20456;-86
2022/07/22 00:25:41;;;;;;;13.07;2.97;;;18.60;99.90;;;;;;5027980;28;20026;-86
2022/07/22 00:28:06;;;;;;;8.27;2.78;;;18.60;99.90;;;;;;5015320;28;20018;-85
2022/07/22 00:30:32;;;;;;;8.07;2.75;;;18.60;99.90;;;;;;5027274;28;20079;-86
2022/07/22 00:32:58;;;;;;;9.07;2.95;;;18.60;99.90;;;;;;5036194;28;20014;-85
2022/07/22 00:35:24;;;;;;;8.20;3.17;;;18.60;99.90;;;;;;5051573;28;20446;-86
2022/07/22 00:37:50;;;;;;;9.77;3.20;;;18.60;99.90;;;;;;5033367;28;20017;-85
2022/07/22 00:40:15;;;;;;;7.55;2.63;;;18.60;99.90;;;;;;5023130;28;20021;-85
2022/07/22 00:42:41;;;;;;;10.20;3.10;;;18.60;99.90;;;;;;5021321;28;20029;-85
2022/07/22 00:45:07;;;;;;;9.73;2.88;;;18.60;99.90;;;;;;5029545;28;20032;-85
2022/07/22 00:47:33;;;;;;;6.90;2.70;;;18.60;99.90;;;;;;5019179;28;20083;-85
2022/07/22 00:49:58;;;;;;;7.95;3.38;;;18.50;99.90;;;;;;5025836;28;20485;-85
2022/07/22 00:52:25;;;;;;;10.23;2.80;;;18.60;99.90;;;;;;5044268;28;20076;-85
2022/07/22 00:54:51;;;;;;;18.95;3.45;;;18.50;99.90;;;;;;4995935;28;20033;-86
2022/07/22 00:57:17;;;;;;;9.10;2.70;;;18.60;99.90;;;;;;5002629;28;20033;-85
2022/07/22 00:59:43;;;;;;;9.77;3.03;;;18.50;99.90;;;;;;5016713;28;20078;-85
2022/07/22 01:02:09;;;;;;;6.63;2.53;;;18.50;99.90;;;;;;5015646;28;20061;-86
2022/07/22 01:04:35;;;;;;;9.85;3.85;;;18.50;99.90;;;;;;5025959;28;20487;-85
2022/07/22 01:07:01;;;;;;;10.18;3.15;;;18.50;99.90;;;;;;5028427;28;20056;-86
2022/07/22 01:09:27;;;;;;;9.55;3.63;;;18.50;99.90;;;;;;5034851;28;20014;-86
2022/07/22 01:11:53;;;;;;;8.48;3.00;;;18.50;99.90;;;;;;5027838;28;20021;-85
2022/07/22 01:14:19;;;;;;;8.65;2.65;;;18.50;99.90;;;;;;5024761;28;20052;-85
2022/07/22 01:16:45;;;;;;;7.80;2.65;;;18.50;99.90;;;;;;5001445;28;20056;-86
2022/07/22 01:19:10;;;;;;;8.93;3.05;;;18.50;99.90;;;;;;5023957;28;20033;-85
2022/07/22 01:21:36;;;;;;;14.20;3.58;;;18.50;99.90;;;;;;5001239;28;20930;-86
2022/07/22 01:24:03;;;;;;;8.52;2.72;;;18.50;99.90;;;;;;5018862;28;20032;-86
2022/07/22 01:26:30;;;;;;;12.15;2.90;;;18.50;99.90;;;;;;5031137;28;20099;-86
2022/07/22 01:28:55;;;;;;;8.77;3.28;;;18.50;99.90;;;;;;5025714;28;20021;-86
2022/07/22 01:31:21;;;;;;;9.25;2.65;;;18.50;99.90;;;;;;5014898;28;20029;-86
2022/07/22 01:33:47;;;;;;;8.73;2.70;;;18.50;99.90;;;;;;5036216;28;20482;-86
2022/07/22 01:36:13;;;;;;;6.65;2.63;;;18.50;99.90;;;;;;5022804;28;20108;-86
2022/07/22 01:38:38;;;;;;;9.50;3.38;;;18.50;99.90;;;;;;4998234;28;20044;-86
2022/07/22 01:41:04;;;;;;;8.43;2.92;;;18.50;99.90;;;;;;5025956;28;20166;-85
2022/07/22 01:43:30;;;;;;;10.38;3.10;;;18.50;99.90;;;;;;5038890;28;20018;-86
2022/07/22 01:45:56;;;;;;;9.40;2.75;;;18.50;99.90;;;;;;5028132;28;20034;-86
2022/07/22 01:48:22;;;;;;;10.27;2.85;;;18.50;99.90;;;;;;5024956;28;20024;-86
2022/07/22 01:50:48;;;;;;;8.35;3.38;;;18.50;99.90;;;;;;5036060;28;20113;-86
2022/07/22 01:53:14;;;;;;;10.70;3.22;;;18.40;99.90;;;;;;5009716;28;20112;-86
2022/07/22 01:55:40;;;;;;;8.23;2.83;;;18.40;99.90;;;;;;5040174;28;20039;-86
2022/07/22 01:58:05;;;;;;;9.85;2.85;;;18.40;99.90;;;;;;5028353;28;20464;-84
2022/07/22 02:00:33;;;;;;;10.18;2.97;;;18.40;99.90;;;;;;5011243;28;20082;-85
2022/07/22 02:02:58;;;;;;;5.97;2.67;;;18.40;99.90;;;;;;5030316;28;20476;-85
2022/07/22 02:05:24;;;;;;;10.70;3.00;;;18.40;99.90;;;;;;5026593;28;20052;-85
2022/07/22 02:07:50;;;;;;;8.63;3.20;;;18.40;99.90;;;;;;5007868;28;20061;-84
2022/07/22 02:10:15;;;;;;;7.72;2.90;;;18.40;99.90;;;;;;5024543;28;20033;-85
2022/07/22 02:12:41;;;;;;;7.43;2.80;;;18.40;99.90;;;;;;4973098;28;20033;-85
2022/07/22 02:15:08;;;;;;;7.90;2.90;;;18.40;99.90;;;;;;5008386;28;20029;-85
2022/07/22 02:17:34;;;;;;;8.13;2.88;;;18.40;99.90;;;;;;4995294;28;20060;-84
2022/07/22 02:20:00;;;;;;;8.63;2.90;;;18.40;99.90;;;;;;4983427;28;20038;-85
2022/07/22 02:22:26;;;;;;;9.68;3.22;;;18.30;99.90;;;;;;4998074;28;20021;-85
2022/07/22 02:24:52;;;;;;;6.38;2.70;;;18.30;99.90;;;;;;5006209;28;20382;-84
2022/07/22 02:27:17;;;;;;;9.38;2.80;;;18.40;99.90;;;;;;4997556;28;20042;-84
2022/07/22 02:29:44;;;;;;;8.13;3.00;;;18.30;99.90;;;;;;5013017;28;20105;-84
2022/07/22 02:32:09;;;;;;;12.20;3.17;;;18.30;99.90;;;;;;5001177;28;20010;-85
2022/07/22 02:34:35;;;;;;;7.25;3.08;;;18.30;99.90;;;;;;5024068;28;20039;-87
2022/07/22 02:37:01;;;;;;;7.07;3.15;;;18.30;99.90;;;;;;4996471;28;20123;-85
2022/07/22 02:39:26;;;;;;;8.65;3.00;;;18.30;99.90;;;;;;5006785;28;20029;-86
2022/07/22 02:41:52;;;;;;;10.32;3.15;;;18.30;99.90;;;;;;4995688;28;20029;-85
2022/07/22 02:44:18;;;;;;;8.60;3.05;;;18.30;99.90;;;;;;5003301;28;20524;-87
2022/07/22 02:46:44;;;;;;;9.57;3.00;;;18.30;99.90;;;;;;4964719;28;20753;-85
2022/07/22 02:49:09;;;;;;;8.18;2.88;;;18.30;99.90;;;;;;4989490;28;20029;-84
2022/07/22 02:51:36;;;;;;;9.35;3.55;;;18.30;99.90;;;;;;4990835;28;20033;-85
2022/07/22 02:54:01;;;;;;;5.47;2.80;;;18.30;99.90;;;;;;5007198;28;20034;-84
2022/07/22 02:56:27;;;;;;;5.75;2.75;;;18.30;99.90;;;;;;5005492;28;20034;-85
2022/07/22 02:58:53;;;;;;;8.38;3.33;;;18.20;99.90;;;;;;4992619;28;20030;-85
2022/07/22 03:01:19;;;;;;;10.27;2.90;;;18.20;99.90;;;;;;5005692;28;20026;-85
2022/07/22 03:03:46;;;;;;;12.13;3.05;;;18.20;99.90;;;;;;5006420;28;20048;-85
2022/07/22 03:06:12;;;;;;;8.57;2.72;;;18.20;99.90;;;;;;5008965;28;20065;-84
2022/07/22 03:08:38;;;;;;;10.40;2.97;;;18.20;99.90;;;;;;5029123;28;20025;-85
2022/07/22 03:11:04;;;;;;;8.63;2.88;;;18.20;99.90;;;;;;5041639;28;20025;-85
2022/07/22 03:13:30;;;;;;;8.00;3.00;;;18.20;99.90;;;;;;5027880;28;20104;-85
2022/07/22 03:15:56;;;;;;;6.68;2.55;;;18.20;99.90;;;;;;5017837;28;20131;-85
2022/07/22 03:18:21;;;;;;;8.07;2.53;;;18.20;99.90;;;;;;5026164;28;20029;-85
2022/07/22 03:20:47;;;;;;;7.07;2.78;;;18.20;99.90;;;;;;5002136;28;20128;-85
2022/07/22 03:23:13;;;;;;;9.18;3.00;;;18.20;99.90;;;;;;5026920;28;20055;-85
2022/07/22 03:25:39;;;;;;;6.50;2.40;;;18.20;99.90;;;;;;5032444;28;20044;-85
2022/07/22 03:28:05;;;;;;;6.97;2.50;;;18.20;99.90;;;;;;5031381;28;20510;-85
2022/07/22 03:30:31;;;;;;;8.80;2.88;;;18.10;99.90;;;;;;5030539;28;20111;-85
2022/07/22 03:32:57;;;;;;;8.38;2.60;;;18.10;99.90;;;;;;5022035;28;20477;-85
2022/07/22 03:35:22;;;;;;;9.90;2.90;;;18.10;99.90;;;;;;5022060;28;20515;-85
2022/07/22 03:37:48;;;;;;;6.35;2.70;;;18.10;99.90;;;;;;5020748;28;20029;-85
2022/07/22 03:40:14;;;;;;;9.68;2.90;;;18.10;99.90;;;;;;5026167;28;20026;-85
2022/07/22 03:42:41;;;;;;;9.50;2.35;;;18.10;99.90;;;;;;5034560;28;20029;-85
2022/07/22 03:45:07;;;;;;;8.32;3.00;;;18.10;99.90;;;;;;5020634;28;20022;-85
2022/07/22 03:47:33;;;;;;;6.93;2.40;;;18.10;99.90;;;;;;5042463;28;20361;-85
2022/07/22 03:49:59;;;;;;;9.07;2.75;;;18.10;99.90;;;;;;5037931;28;20024;-85
2022/07/22 03:52:25;;;;;;;5.30;2.53;;;18.10;99.90;;;;;;5036696;28;20422;-85
2022/07/22 03:54:51;;;;;;;7.05;2.78;;;18.10;99.90;;;;;;5047019;28;20044;-85
2022/07/22 03:57:17;;;;;;;6.15;2.92;;;18.10;99.90;;;;;;5032833;28;20472;-85
2022/07/22 03:59:42;;;;;;;9.30;2.63;;;18.10;99.90;;;;;;5024002;28;20036;-85
2022/07/22 04:02:08;;;;;;;6.68;2.60;;;18.10;99.90;;;;;;5018018;28;20029;-85
2022/07/22 04:04:33;;;;;;;7.00;3.13;;;18.10;99.90;;;;;;5006455;28;20032;-84
2022/07/22 04:06:59;;;;;;;8.32;2.67;;;18.10;99.90;;;;;;5036601;28;20052;-84
2022/07/22 04:09:25;;;;;;;7.40;2.65;;;18.10;99.90;;;;;;5007749;28;20025;-84
2022/07/22 04:11:51;;;;;;;7.70;2.92;;;18.10;99.90;;;;;;5027760;28;20025;-85
2022/07/22 04:14:17;;;;;;;6.22;2.70;;;18.10;99.90;;;;;;5007735;28;20492;-84
2022/07/22 04:16:46;;;;;;;10.20;2.95;;;18.10;99.90;;;;;;5016971;28;20033;-84
2022/07/22 04:19:12;;;;;;;8.55;3.45;;;18.10;99.90;;;;;;5016568;28;20056;-84
2022/07/22 04:21:37;;;;;;;9.75;3.33;;;18.10;99.90;;;;;;5021004;28;20460;-85
2022/07/22 04:24:03;;;;;;;7.47;2.80;;;18.10;99.90;;;;;;5021817;28;20132;-85
2022/07/22 04:26:29;;;;;;;5.03;2.50;;;18.10;99.90;;;;;;5021584;28;20021;-84
2022/07/22 04:28:55;;;;;;;6.70;2.60;;;18.10;99.90;;;;;;5012997;28;20028;-85
2022/07/22 04:31:21;;;;;;;6.43;3.58;;;18.10;99.90;;;;;;5021685;28;20021;-85
2022/07/22 04:33:46;;;;;;;7.82;3.72;;;18.10;99.90;;;;;;5008171;28;20030;-85
2022/07/22 04:36:12;;;;;;;12.02;3.40;;;18.10;99.90;;;;;;5013696;28;20026;-84
2022/07/22 04:38:38;;;;;;;8.55;3.33;;;18.10;99.90;;;;;;5018290;28;20025;-84
2022/07/22 04:41:04;;;;;;;7.47;3.20;;;18.10;99.90;;;;;;4998937;28;20029;-84
2022/07/22 04:43:29;;;;;;;8.35;3.47;;;18.10;99.90;;;;;;5004503;28;20437;-84
2022/07/22 04:45:55;;;;;;;8.45;3.20;;;18.10;99.90;;;;;;5011084;28;20033;-84
2022/07/22 04:48:21;;;;;;;7.70;3.33;;;18.10;99.90;;;;;;5012443;28;20034;-84
2022/07/22 04:50:47;;;;;;;6.90;2.80;;;18.10;99.90;;;;;;4979276;28;20030;-85
2022/07/22 04:53:12;;;;;;;7.80;3.10;;;18.10;99.90;;;;;;5009019;28;20025;-85
2022/07/22 04:55:38;;;;;;;7.93;3.20;;;18.10;99.90;;;;;;5017888;28;20033;-84
2022/07/22 04:58:04;;;;;;;5.85;3.22;;;18.10;99.90;;;;;;5004091;28;20060;-85
2022/07/22 05:00:30;;;;;;;9.60;3.83;;;18.10;99.90;;;;;;5018495;28;20069;-86
2022/07/22 05:02:56;;;;;;;9.13;2.85;;;18.10;99.90;;;;;;5017876;28;20048;-85
2022/07/22 05:05:23;;;;;;;10.80;3.22;;;18.10;99.90;;;;;;5017653;28;20022;-86
2022/07/22 05:07:49;;;;;;;5.75;3.25;;;18.10;99.90;;;;;;5023133;28;20046;-86
2022/07/22 05:10:15;;;;;;;8.23;3.50;;;18.10;99.90;;;;;;4980070;28;20361;-86
2022/07/22 05:12:40;;;;;;;7.15;3.60;;;18.10;99.90;;;;;;5006007;28;20022;-85
2022/07/22 05:15:07;;;;;;;5.72;3.22;;;18.10;99.90;;;;;;5013560;28;20021;-86
2022/07/22 05:17:32;;;;;;;5.05;2.80;;;18.10;99.90;;;;;;4987139;28;20117;-87
2022/07/22 05:19:58;;;;;;;8.57;2.97;;;18.10;99.90;;;;;;4995646;28;20117;-85
2022/07/22 05:22:24;;;;;;;6.22;2.20;;;18.10;99.90;;;;;;4993146;28;20026;-86
2022/07/22 05:24:50;;;;;;;5.38;2.40;;;18.10;99.90;;;;;;4995752;28;20030;-86
2022/07/22 05:27:16;;;;;;;6.43;2.40;;;18.10;99.90;;;;;;4995660;28;20033;-86
2022/07/22 05:29:42;;;;;;;6.57;2.30;;;18.10;99.90;;;;;;4980262;28;20026;-86
2022/07/22 05:32:07;;;;;;;6.75;2.30;;;18.10;99.90;;;;;;4965160;28;20470;-86
2022/07/22 05:34:33;;;;;;;8.05;2.58;;;18.10;99.90;;;;;;4988385;28;20030;-86
2022/07/22 05:36:59;;;;;;;6.35;2.33;;;18.10;99.90;;;;;;5007921;28;20038;-87
2022/07/22 05:39:24;;;;;;;5.55;2.45;;;18.10;99.90;;;;;;5026361;28;20018;-86
2022/07/22 05:41:50;;;;;;;5.03;1.90;;;18.10;99.90;;;;;;4992840;28;20480;-86
2022/07/22 05:44:16;;;;;;;7.15;2.78;;;18.10;99.90;;;;;;4988658;28;20025;-87
2022/07/22 05:46:41;;;;;;;6.13;2.38;;;18.10;99.90;;;;;;5009019;28;20022;-87
2022/07/22 05:49:07;;;;;;;5.95;2.10;;;18.10;99.90;;;;;;4998262;28;20025;-87
2022/07/22 05:51:34;;;;;;;8.57;2.70;;;18.10;99.90;;;;;;4996761;28;20476;-87
2022/07/22 05:54:02;;;;;;;9.38;2.80;;;18.10;99.90;;;;;;5006406;28;20469;-87
2022/07/22 05:56:28;;;;;;;4.80;2.10;;;18.10;99.90;;;;;;4999715;28;20108;-87
2022/07/22 05:58:55;;;;;;;5.10;2.22;;;18.10;99.90;;;;;;5001180;28;20153;-87
2022/07/22 06:01:22;;;;;;;6.35;2.60;;;18.10;99.90;;;;;;4983709;28;20025;-87
2022/07/22 06:03:47;;;;;;;6.78;2.42;;;18.00;99.90;;;;;;4984939;28;20027;-87
2022/07/22 06:06:13;;;;;;;7.80;2.15;;;18.00;99.90;;;;;;5003471;28;20048;-87
2022/07/22 06:08:39;;;;;;;10.10;2.65;;;18.00;99.90;;;;;;4995007;28;20593;-87
2022/07/22 06:11:05;;;;;;;4.32;1.80;;;18.00;99.90;;;;;;5032293;28;20025;-87
2022/07/22 06:13:31;;;;;;;5.30;1.92;;;18.00;99.90;;;;;;5012523;28;20385;-87
2022/07/22 06:15:56;;;;;;;5.43;2.08;;;18.00;99.90;;;;;;5000297;28;20029;-87
2022/07/22 06:18:22;;;;;;;6.70;2.25;;;18.10;99.90;;;;;;5029100;28;20025;-87
2022/07/22 06:20:47;;;;;;;6.35;2.20;;;18.00;99.90;;;;;;5007848;28;20030;-87
2022/07/22 06:23:13;;;;;;;5.07;2.65;;;18.00;99.90;;;;;;5014481;28;20039;-86
2022/07/22 06:25:39;;;;;;;6.60;2.00;;;18.00;99.90;;;;;;4997703;28;20072;-87
2022/07/22 06:28:05;;;;;;;4.88;1.98;;;18.10;99.90;;;;;;5008767;28;20368;-86
2022/07/22 06:30:32;;;;;;;10.10;2.40;;;18.10;99.90;;;;;;5021502;28;20327;-87
2022/07/22 06:32:58;;;;;;;12.35;2.53;;;18.00;99.90;;;;;;5011583;28;20059;-86
2022/07/22 06:35:26;;;;;;;4.90;2.30;;;18.00;99.90;;;;;;5007437;28;20025;-86
2022/07/22 06:37:52;;;;;;;6.57;2.10;;;18.00;99.90;;;;;;5012896;28;20033;-87
2022/07/22 06:40:18;;;;;;;5.88;2.30;;;18.00;99.90;;;;;;5005210;28;20114;-87
2022/07/22 06:42:44;;;;;;;7.43;2.25;;;18.10;99.90;;;;;;4999620;28;20054;-86
2022/07/22 06:45:09;;;;;;;6.95;2.10;;;18.10;99.90;;;;;;5020010;28;20485;-87
2022/07/22 06:47:35;;;;;;;10.27;2.83;;;18.10;99.90;;;;;;4994303;28;20018;-87
2022/07/22 06:50:06;;;;;;;9.13;2.40;;;18.10;99.90;;;;;;5027112;28;20136;-86
2022/07/22 06:52:31;;;;;;;5.95;2.00;;;18.10;99.90;;;;;;5011293;28;20547;-87
2022/07/22 06:54:57;;;;;;;6.55;2.00;;;18.10;99.90;;;;;;4994934;28;20026;-87
2022/07/22 06:57:23;;;;;;;10.50;2.30;;;18.10;99.90;;;;;;4982253;28;20053;-87
2022/07/22 06:59:49;;;;;;;4.68;2.30;;;18.10;99.90;;;;;;5016636;28;20116;-86
2022/07/22 07:02:15;;;;;;;8.52;2.33;;;18.10;99.90;;;;;;5016019;28;20029;-86
2022/07/22 07:04:40;;;;;;;8.40;2.30;;;18.20;99.90;;;;;;4986813;28;20129;-87
2022/07/22 07:07:07;;;;;;;6.00;2.08;;;18.10;99.90;;;;;;5014631;28;20041;-86
2022/07/22 07:09:33;;;;;;;7.55;2.20;;;18.20;99.90;;;;;;5042700;28;20018;-86
2022/07/22 07:11:59;;;;;;;4.88;1.75;;;18.20;99.90;;;;;;5016142;28;20377;-87
2022/07/22 07:14:24;;;;;;;5.47;2.03;;;18.20;99.90;;;;;;5019097;28;20434;-87
2022/07/22 07:16:50;;;;;;;6.90;2.00;;;18.20;99.90;;;;;;5011433;28;20037;-87
2022/07/22 07:19:15;;;;;;;3.75;1.90;;;18.30;99.90;;;;;;5023080;28;20400;-87
2022/07/22 07:21:41;;;;;;;4.63;1.90;;;18.30;99.90;;;;;;5043928;28;20128;-87
2022/07/22 07:24:07;;;;;;;5.65;1.73;;;18.30;99.90;;;;;;4981768;28;20030;-87
2022/07/22 07:26:33;;;;;;;5.38;2.13;;;18.30;99.90;;;;;;5023183;28;20029;-88
2022/07/22 07:28:58;;;;;;;4.43;1.95;;;18.30;99.90;;;;;;5038730;28;20025;-87
2022/07/22 07:31:24;;;;;;;7.40;2.00;;;18.30;99.90;;;;;;5019315;28;20028;-87
2022/07/22 07:33:50;;;;;;;8.98;2.08;;;18.40;99.90;;;;;;5016016;28;20120;-87
2022/07/22 07:36:16;;;;;;;5.80;2.10;;;18.40;99.90;;;;;;4990966;28;20030;-87
2022/07/22 07:38:42;;;;;;;4.68;1.50;;;18.40;99.90;;;;;;5020203;28;20034;-87
2022/07/22 07:41:08;;;;;;;10.07;2.33;;;18.40;99.90;;;;;;5034880;28;20032;-87
2022/07/22 07:43:34;;;;;;;5.35;1.90;;;18.40;99.90;;;;;;5012811;28;20026;-87
2022/07/22 07:45:59;;;;;;;3.33;1.67;;;18.40;99.90;;;;;;4982828;28;20025;-88
2022/07/22 07:48:25;;;;;;;4.50;2.10;;;18.40;99.90;;;;;;5012137;28;20034;-88
2022/07/22 07:50:51;;;;;;;6.15;2.38;;;18.40;99.90;;;;;;4998930;28;20025;-87
2022/07/22 07:53:17;;;;;;;6.88;1.63;;;18.40;99.90;;;;;;4983687;28;20112;-87
2022/07/22 07:55:43;;;;;;;9.45;2.08;;;18.40;99.90;;;;;;5034615;28;20429;-87
2022/07/22 07:58:08;;;;;;;4.25;1.80;;;18.40;99.90;;;;;;5023958;28;20026;-87
2022/07/22 08:00:35;;;;;;;5.35;1.85;;;18.40;99.90;;;;;;4989907;28;20026;-86
2022/07/22 08:03:03;;;;;;;7.88;1.60;;;18.40;99.90;;;;;;5002496;28;20055;-86
2022/07/22 08:05:29;;;;;;;11.07;2.63;;;18.40;99.90;;;;;;5022413;28;20030;-87
2022/07/22 08:07:55;;;;;;;5.93;1.92;;;18.50;99.90;;;;;;5025163;28;20041;-87
2022/07/22 08:10:22;;;;;;;5.45;1.90;;;18.50;99.90;;;;;;5013623;28;20350;-86
2022/07/22 08:12:48;;;;;;;5.03;1.42;;;18.50;99.90;;;;;;5017783;28;20108;-87
2022/07/22 08:15:15;;;;;;;5.40;1.75;;;18.50;99.90;;;;;;5016708;28;20030;-87
2022/07/22 08:17:40;;;;;;;6.57;2.08;;;18.50;99.90;;;;;;4998190;28;20481;-85
2022/07/22 08:20:07;;;;;;;4.25;1.80;;;18.50;99.90;;;;;;5008839;28;20025;-86
2022/07/22 08:22:34;;;;;;;5.28;1.90;;;18.50;99.90;;;;;;5014498;28;20033;-86
2022/07/22 08:24:59;;;;;;;5.70;2.03;;;18.50;99.90;;;;;;5021589;28;20109;-86
2022/07/22 08:27:25;;;;;;;5.47;1.92;;;18.50;99.90;;;;;;5016642;28;20048;-86
2022/07/22 08:29:51;;;;;;;5.05;1.73;;;18.60;99.90;;;;;;4991227;28;20033;-86
2022/07/22 08:32:17;;;;;;;4.25;1.85;;;18.60;99.90;;;;;;5020504;28;20030;-86
2022/07/22 08:34:42;;;;;;;6.20;2.03;;;18.60;99.90;;;;;;4998323;28;20114;-86
2022/07/22 08:37:08;;;;;;;5.57;2.10;;;18.60;99.90;;;;;;4989161;28;20477;-89
2022/07/22 08:39:34;;;;;;;7.38;2.67;;;18.70;99.90;;;;;;5041865;28;20022;-90
2022/07/22 08:42:00;;;;;;;4.53;1.92;;;18.70;99.90;;;;;;5015305;28;20121;-90
2022/07/22 08:44:32;;;;;;;4.28;2.00;;;18.70;99.90;;;;;;5009299;28;20039;-86
2022/07/22 08:47:02;;;;;;;5.22;2.40;;;18.80;99.90;;;;;;5013381;28;20572;-86
2022/07/22 08:49:28;;;;;;;5.30;2.00;;;18.80;99.90;;;;;;5004969;28;20027;-85
2022/07/22 08:51:53;;;;;;;7.05;2.20;;;18.80;99.90;;;;;;4994419;28;20022;-86
2022/07/22 08:54:19;;;;;;;4.28;2.15;;;18.80;99.90;;;;;;5003354;28;20030;-85
2022/07/22 08:56:49;;;;;;;5.53;2.20;;;18.90;99.90;;;;;;5024629;28;20021;-86
2022/07/22 08:59:15;;;;;;;4.78;1.92;;;18.90;99.90;;;;;;5007933;28;20056;-86
2022/07/22 09:02:02;;;;;;;4.60;2.15;;;19.00;99.90;;;;;;5027956;28;20018;-86
2022/07/22 09:04:28;;;;;;;5.90;2.10;;;18.90;99.90;;;;;;4996715;28;20028;-86
2022/07/22 09:06:54;;;;;;;6.20;2.22;;;19.00;99.90;;;;;;5005667;28;20049;-86
2022/07/22 09:09:32;;;;;;;6.53;2.15;;;19.00;99.90;;;;;;4983505;28;20021;-86
2022/07/22 09:12:08;;;;;;;4.90;2.20;;;19.00;99.90;;;;;;5013460;28;20425;-86
2022/07/22 09:14:55;;;;;;;3.97;2.47;;;19.10;99.90;;;;;;5031577;28;20026;-86
2022/07/22 09:17:35;;;;;;;6.97;2.78;;;19.10;99.90;;;;;;5016669;28;20025;-86
2022/07/22 09:20:14;;;;;;;4.37;2.43;;;19.10;99.90;;;;;;5027042;28;20389;-86
2022/07/22 09:22:46;;;;;;;4.03;2.13;;;19.10;99.90;;;;;;5215293;23;20088;-83
2022/07/22 09:25:29;;;;;;;5.05;2.05;;;19.10;99.90;;;;;;5032782;28;20537;-83
2022/07/22 09:28:16;;;;;;;6.38;2.13;;;19.20;99.90;;;;;;5020245;28;20047;-84
2022/07/22 09:30:50;;;;;;;5.45;1.98;;;19.20;99.90;;;;;;5028616;28;20411;-84
2022/07/22 09:33:15;;;;;;;5.60;1.85;;;19.20;99.90;;;;;;5033400;28;20029;-84
2022/07/22 09:35:41;;;;;;;6.70;2.15;;;19.20;99.90;;;;;;5015514;28;20083;-84
2022/07/22 09:38:10;;;;;;;5.97;2.28;;;19.20;99.90;;;;;;5033356;28;20022;-84
2022/07/22 09:40:39;;;;;;;7.22;2.40;;;19.20;99.90;;;;;;5032873;28;20022;-84
2022/07/22 09:43:12;;;;;;;5.68;2.35;;;19.20;99.90;;;;;;5031682;28;20029;-84
2022/07/22 09:45:48;;;;;;;7.38;2.00;;;19.30;99.90;;;;;;5031792;28;20120;-84
2022/07/22 09:48:16;;;;;;;5.13;2.20;;;19.30;99.90;;;;;;5030673;28;20029;-85
2022/07/22 09:50:41;;;;;;;5.70;2.10;;;19.30;99.90;;;;;;5031744;28;20044;-84
2022/07/22 09:53:07;;;;;;;6.10;2.17;;;19.30;99.90;;;;;;5014697;28;20138;-84
2022/07/22 09:55:33;;;;;;;6.30;2.40;;;19.40;99.90;;;;;;5031710;28;20038;-82
2022/07/22 09:57:59;;;;;;;3.95;2.03;;;19.40;99.90;;;;;;5031198;28;20021;-84
2022/07/22 10:00:26;;;;;;;3.83;2.08;;;19.40;99.90;;;;;;5014954;28;20033;-83
2022/07/22 10:02:59;;;;;;;4.63;2.03;;;19.50;99.90;;;;;;5020022;28;20056;-83
2022/07/22 10:05:26;;;;;;;5.50;2.00;;;19.50;99.90;;;;;;5032114;28;20064;-83
2022/07/22 10:07:54;;;;;;;8.15;2.92;;;19.50;99.90;;;;;;5014424;28;20026;-83
2022/07/22 10:10:26;;;;;;;3.67;1.73;;;19.60;99.90;;;;;;5014230;28;20021;-83
2022/07/22 10:12:54;;;;;;;3.50;1.90;;;19.60;99.90;;;;;;5014947;28;20022;-83
2022/07/22 10:15:21;;;;;;;2.63;1.60;;;19.60;99.90;;;;;;5014709;28;20159;-83
2022/07/22 10:17:49;;;;;;;4.53;1.95;;;19.60;99.90;;;;;;5014883;28;20545;-83
2022/07/22 10:20:20;;;;;;;3.78;1.67;;;19.70;99.90;;;;;;5032324;28;20033;-82
2022/07/22 10:22:49;;;;;;;6.35;2.58;;;19.70;99.90;;;;;;5039658;28;20498;-82
2022/07/22 10:25:16;;;;;;;4.88;1.80;;;19.70;99.90;;;;;;5032585;28;20430;-82
2022/07/22 10:28:05;;;;;;;3.92;1.95;;;19.70;99.90;;;;;;5024919;28;20024;-82
2022/07/22 10:30:36;;;;;;;3.63;1.98;;;19.80;99.90;;;;;;5019030;28;20415;-84
2022/07/22 10:33:06;;;;;;;;;;;19.80;99.90;;;;;;5033188;28;20044;-84
2022/07/22 10:35:33;;;;;;;3.03;1.75;;;19.80;99.90;;;;;;5030273;28;19905;-84
2022/07/22 10:38:01;;;;;;;2.80;1.77;;;19.80;99.90;;;;;;4998779;28;20029;-83
2022/07/22 10:40:29;;;;;;;2.75;1.80;;;19.80;99.90;;;;;;5032105;28;20028;-83
2022/07/22 10:43:03;;;;;;;6.47;1.80;;;19.80;99.90;;;;;;5011588;28;20469;-83
2022/07/22 10:45:45;;;;;;;8.10;2.33;;;19.90;99.90;;;;;;5013525;28;20029;-84
2022/07/22 10:48:24;;;;;;;4.72;2.13;;;19.90;99.90;;;;;;5028693;28;20021;-83
2022/07/22 10:50:55;;;;;;;4.50;2.05;;;20.00;99.90;;;;;;5031543;28;20097;-83
2022/07/22 10:53:41;;;;;;;7.07;2.30;;;20.00;99.90;;;;;;5017164;28;20022;-83
2022/07/22 10:56:16;;;;;;;4.03;1.92;;;20.00;99.90;;;;;;5005469;28;20021;-83
2022/07/22 10:58:51;;;;;;;4.03;1.83;;;20.00;99.90;;;;;;5010690;28;20349;-84
2022/07/22 11:01:19;;;;;;;4.95;2.00;;;20.00;99.90;;;;;;5015453;28;20017;-82
2022/07/22 11:03:46;;;;;;;4.63;1.85;;;20.10;99.90;;;;;;5016123;28;20828;-82
2022/07/22 11:06:29;;;;;;;5.90;2.22;;;20.10;99.90;;;;;;5028965;28;20116;-83
2022/07/22 11:09:16;;;;;;;3.13;1.77;;;20.10;99.90;;;;;;5015941;28;20018;-82
2022/07/22 11:11:49;;;;;;;5.25;2.45;;;20.20;99.90;;;;;;5033583;28;20021;-82
2022/07/22 11:14:36;;;;;;;2.67;1.80;;;20.20;99.90;;;;;;5028896;28;20076;-82
2022/07/22 11:17:08;;;;;;;3.35;1.88;;;20.20;99.90;;;;;;5012440;28;20033;-82
2022/07/22 11:19:37;;;;;;;4.43;1.75;;;20.20;99.90;;;;;;5030660;28;20025;-82
2022/07/22 11:22:11;;;;;;;3.22;1.90;;;20.20;99.90;;;;;;5014020;28;20568;-82
2022/07/22 11:24:37;;;;;;;5.13;2.10;;;20.30;99.90;;;;;;5013668;28;20032;-83
2022/07/22 11:27:08;;;;;;;4.20;1.98;;;20.30;99.90;;;;;;5014502;28;20037;-82
2022/07/22 11:29:35;;;;;;;;;;;20.30;99.90;;;;;;4999556;28;20064;-81
2022/07/22 11:32:04;;;;;;;3.83;1.75;;;20.40;99.90;;;;;;5015311;28;19956;-82
2022/07/22 11:34:30;;;;;;;4.78;1.73;;;20.40;99.90;;;;;;5014291;28;20022;-83
2022/07/22 11:36:57;;;;;;;2.65;1.50;;;20.40;99.90;;;;;;4997770;28;20094;-82
2022/07/22 11:39:25;;;;;;;2.60;1.42;;;20.40;99.90;;;;;;5015319;28;20092;-83
2022/07/22 11:41:53;;;;;;;4.55;1.88;;;20.50;99.90;;;;;;5015239;28;20072;-85
2022/07/22 11:44:20;;;;;;;3.67;1.70;;;20.50;99.90;;;;;;4998006;28;20071;-86
2022/07/22 11:46:46;;;;;;;3.17;1.70;;;20.50;99.90;;;;;;5014174;28;20025;-84
2022/07/22 11:49:21;;;;;;;4.65;1.65;;;20.60;99.90;;;;;;5012490;28;20112;-92
2022/07/22 11:51:51;;;;;;;4.18;2.05;;;20.60;99.90;;;;;;5018401;28;20073;-91
2022/07/22 11:54:19;;;;;;;5.07;1.85;;;20.60;99.90;;;;;;5017515;28;20033;-95
2022/07/22 11:56:46;;;;;;;4.20;2.15;;;20.70;99.90;;;;;;5018382;28;20021;-92
2022/07/22 11:59:14;;;;;;;4.05;1.92;;;20.70;99.90;;;;;;5019142;28;20048;-92
2022/07/22 12:01:44;;;;;;;4.57;2.22;;;20.70;99.90;;;;;;5018818;28;20103;-91
2022/07/22 12:04:14;;;;;;;5.68;2.10;;;20.70;99.90;;;;;;5018365;28;20152;-92
2022/07/22 12:06:41;;;;;;;;;;;20.80;99.90;;;;;;5019464;28;20186;-92
2022/07/22 12:09:20;;;;;;;3.22;1.77;;;20.80;99.90;;;;;;5018979;28;19905;-91
2022/07/22 12:11:48;;;;;;;4.15;1.40;;;20.90;99.90;;;;;;5018146;28;20387;-91
2022/07/22 12:14:20;;;;;;;2.90;1.70;;;20.80;99.90;;;;;;5005264;28;20018;-91
2022/07/22 12:17:09;;;;;;;5.28;1.70;;;20.90;99.90;;;;;;5019471;28;20025;-91
2022/07/22 12:19:36;;;;;;;4.22;1.75;;;21.00;99.90;;;;;;5037134;28;20140;-93
2022/07/22 12:22:03;;;;;;;6.35;1.98;;;21.00;99.90;;;;;;5032060;28;20064;-92
2022/07/22 12:24:35;;;;;;;3.90;1.70;;;21.00;99.90;;;;;;5022588;28;20038;-91
2022/07/22 12:27:12;;;;;;;4.20;1.80;;;21.10;99.90;;;;;;5037205;28;20021;-91
2022/07/22 12:29:38;;;;;;;3.72;1.88;;;21.10;99.90;;;;;;5015695;28;20099;-91
2022/07/22 12:32:05;;;;;;;4.15;2.05;;;21.20;99.90;;;;;;5004495;28;20030;-91
2022/07/22 12:34:39;;;;;;;5.63;2.20;;;21.20;99.90;;;;;;5005112;28;20487;-91
2022/07/22 12:37:12;;;;;;;4.55;1.70;;;21.30;99.90;;;;;;5004121;28;20021;-91
2022/07/22 12:39:38;;;;;;;4.82;2.22;;;21.30;99.90;;;;;;5031170;28;20033;-90
2022/07/22 12:42:17;;;;;;;4.13;1.95;;;21.40;99.90;;;;;;5034861;28;20092;-90
2022/07/22 12:44:52;;;;;;;3.72;1.85;;;21.40;99.90;;;;;;5034583;28;20036;-91
2022/07/22 12:47:37;;;;;;;4.78;1.63;;;21.40;99.90;;;;;;5026820;28;20029;-91